Time;durP1;ratioP1;P1;durP2;ratioP2;P2;SDS_P1;SDS_P2;PMS_P1;PMS_P2;Temp;Humidity;BMP_temperature;BMP_pressure;BME280_temperature;BME280_humidity;BME280_pressure;Samples;Min_cycle;Max_cycle;Signal;HPM_P1;HPM_P2
2022/03/22 00:00:10;;;;;;;;;;;10.40;99.10;;;8.90;61.55;102712.47;2568309;30;138382;-42
2022/03/22 00:02:41;;;;;;;;;;;10.30;99.00;;;8.97;60.72;102707.28;2569594;30;136919;-42
2022/03/22 00:05:09;;;;;;;;;;;10.40;98.70;;;8.93;60.38;102717.63;2569365;30;138927;-42
2022/03/22 00:07:36;;;;;;;;;;;10.30;98.30;;;8.94;60.60;102711.16;2567135;30;137052;-42
2022/03/22 00:10:04;;;;;;;;;;;10.30;98.50;;;8.83;61.56;102714.13;2569050;30;138105;-42
2022/03/22 00:12:31;;;;;;;;;;;10.30;98.80;;;8.82;60.83;102721.41;2569231;30;137734;-41
2022/03/22 00:15:00;;;;;;;;;;;10.30;98.50;;;8.81;60.56;102718.88;2568866;30;138961;-42
2022/03/22 00:17:47;;;;;;;;;;;10.20;98.40;;;8.75;60.59;102723.03;2568823;30;136990;-39
2022/03/22 00:20:15;;;;;;;;;;;10.20;98.30;;;8.80;60.22;102725.31;2568224;30;138170;-41
2022/03/22 00:22:43;;;;;;;;;;;10.20;98.30;;;8.74;59.90;102727.63;2565224;30;137841;-42
2022/03/22 00:25:10;;;;;;;;;;;10.20;97.90;;;8.76;60.80;102724.75;2568353;30;138127;-41
2022/03/22 00:27:57;;;;;;;;;;;10.20;98.40;;;8.78;60.47;102729.06;2569742;30;136934;-42
2022/03/22 00:30:31;;;;;;;;;;;10.20;98.30;;;8.65;60.53;102728.56;2567260;30;139699;-41
2022/03/22 00:33:03;;;;;;;;;;;10.10;98.10;;;8.59;60.60;102730.00;2567924;30;137656;-41
2022/03/22 00:35:37;;;;;;;;;;;10.00;98.10;;;8.54;60.20;102734.22;2567667;30;138977;-41
2022/03/22 00:38:08;;;;;;;;;;;10.00;97.80;;;8.52;60.40;102728.91;2568518;30;137101;-41
2022/03/22 00:40:35;;;;;;;;;;;10.00;97.90;;;8.63;59.47;102727.84;2568579;30;137291;-41
2022/03/22 00:43:03;;;;;;;;;;;10.00;97.80;;;8.60;59.51;102725.44;2567151;30;137912;-41
2022/03/22 00:45:32;;;;;;;;;;;10.00;97.60;;;8.60;58.87;102731.72;2568587;30;138374;-41
2022/03/22 00:48:05;;;;;;;;;;;10.00;97.20;;;8.58;58.95;102732.91;2568256;30;137332;-41
2022/03/22 00:50:35;;;;;;;;;;;10.00;97.10;;;8.56;59.46;102726.75;2567137;30;139384;-41
2022/03/22 00:53:05;;;;;;;;;;;10.00;97.30;;;8.52;58.65;102730.78;2568694;30;136677;-41
2022/03/22 00:55:32;;;;;;;;;;;9.90;97.00;;;8.46;58.75;102732.22;2570388;30;138238;-41
2022/03/22 00:57:59;;;;;;;;;;;9.90;97.10;;;8.36;59.43;102735.00;2567034;30;137010;-41
2022/03/22 01:00:27;;;;;;;;;;;9.80;97.20;;;8.38;58.93;102730.25;2569228;30;138329;-41
2022/03/22 01:02:58;;;;;;;;;;;9.80;97.10;;;8.31;58.90;102726.44;2567011;30;136988;-42
2022/03/22 01:05:27;;;;;;;;;;;9.80;96.90;;;8.30;58.92;102733.72;2570864;30;137858;-40
2022/03/22 01:07:59;;;;;;;;;;;9.70;97.00;;;8.29;58.83;102731.16;2568715;30;137018;-40
2022/03/22 01:10:29;;;;;;;;;;;9.70;96.90;;;8.23;59.14;102732.63;2569208;30;138207;-40
2022/03/22 01:12:58;;;;;;;;;;;9.70;97.10;;;8.23;59.59;102729.06;2568870;30;136768;-40
2022/03/22 01:15:32;;;;;;;;;;;9.60;97.30;;;8.17;58.93;102733.22;2569625;30;138410;-40
2022/03/22 01:18:05;;;;;;;;;;;9.60;97.00;;;8.15;58.89;102725.19;2568622;30;137286;-40
2022/03/22 01:20:35;;;;;;;;;;;9.60;96.90;;;8.11;59.63;102731.94;2568956;30;139006;-40
2022/03/22 01:23:04;;;;;;;;;;;9.60;97.20;;;8.02;59.16;102728.25;2569996;30;137214;-40
2022/03/22 01:25:34;;;;;;;;;;;9.50;96.90;;;8.01;59.31;102720.28;2570757;30;139013;-40
2022/03/22 01:28:05;;;;;;;;;;;9.50;97.00;;;8.00;58.82;102726.72;2569684;30;137564;-40
2022/03/22 01:30:33;;;;;;;;;;;9.40;96.80;;;7.95;58.87;102720.84;2568160;30;139968;-40
2022/03/22 01:33:02;;;;;;;;;;;9.40;96.80;;;7.91;59.62;102721.13;2569440;30;137847;-40
2022/03/22 01:35:30;;;;;;;;;;;9.40;97.10;;;7.88;59.63;102720.59;2568951;30;138127;-40
2022/03/22 01:37:57;;;;;;;;;;;9.30;97.10;;;7.94;59.51;102719.13;2569666;30;136910;-40
2022/03/22 01:40:27;;;;;;;;;;;9.30;97.10;;;7.87;59.68;102716.16;2569810;30;138115;-41
2022/03/22 01:42:55;;;;;;;;;;;9.30;97.20;;;7.86;59.63;102714.47;2570376;30;136769;-40
2022/03/22 01:45:23;;;;;;;;;;;9.30;97.10;;;7.94;58.88;102721.84;2567310;30;139004;-40
2022/03/22 01:47:52;;;;;;;;;;;9.30;96.70;;;7.97;58.88;102719.69;2570197;30;136985;-40
2022/03/22 01:50:20;;;;;;;;;;;9.40;96.80;;;7.97;57.71;102721.56;2570112;30;138954;-39
2022/03/22 01:52:48;;;;;;;;;;;9.40;96.20;;;7.98;58.06;102713.25;2569318;30;137117;-40
2022/03/22 01:55:19;;;;;;;;;;;9.40;96.40;;;7.91;58.25;102712.16;2570603;30;137270;-40
2022/03/22 01:57:47;;;;;;;;;;;9.40;96.30;;;7.94;57.92;102716.41;2569383;30;137128;-40
2022/03/22 02:00:20;;;;;;;;;;;9.40;96.10;;;7.86;58.07;102709.88;2569550;30;137994;-40
2022/03/22 02:05:51;;;;;;;;;;;9.30;96.50;;;7.96;58.23;102704.41;2568209;30;137712;-40
2022/03/22 02:08:21;;;;;;;;;;;9.40;96.00;;;7.89;57.88;102708.72;2568532;30;138015;-40
2022/03/22 02:10:49;;;;;;;;;;;9.30;96.00;;;7.81;57.86;102695.88;2568980;30;138121;-40
2022/03/22 02:13:16;;;;;;;;;;;9.30;96.00;;;7.81;58.82;102705.88;2569597;30;136984;-42
2022/03/22 02:15:49;;;;;;;;;;;9.30;96.40;;;7.81;57.75;102703.16;2567813;30;138261;-40
2022/03/22 02:18:17;;;;;;;;;;;9.20;95.90;;;7.74;58.36;102700.19;2569420;30;137267;-40
2022/03/22 02:20:46;;;;;;;;;;;9.20;96.20;;;7.70;58.44;102701.50;2568165;30;137291;-40
2022/03/22 02:23:45;;;;;;;;;;;9.20;96.20;;;7.69;57.96;102697.91;2569511;30;136683;-40
2022/03/22 02:26:12;;;;;;;;;;;9.20;96.20;;;7.65;58.24;102695.63;2568022;30;138316;-40
2022/03/22 02:28:42;;;;;;;;;;;9.10;96.10;;;7.65;58.85;102698.34;2570607;30;136909;-41
2022/03/22 02:31:10;;;;;;;;;;;9.10;96.40;;;7.62;58.20;102699.50;2569324;30;138327;-40
2022/03/22 02:33:43;;;;;;;;;;;9.10;96.10;;;7.64;58.24;102689.34;2568039;30;137864;-40
2022/03/22 02:36:11;;;;;;;;;;;9.10;96.10;;;7.66;57.58;102691.91;2569545;30;138277;-40
2022/03/22 02:38:39;;;;;;;;;;;9.10;95.70;;;7.72;58.14;102692.16;2571798;30;137322;-40
2022/03/22 02:41:07;;;;;;;;;;;9.10;96.00;;;7.81;57.29;102686.84;2570441;30;138029;-40
2022/03/22 02:43:36;;;;;;;;;;;9.20;95.60;;;7.80;57.10;102694.16;2567193;30;138081;-40
2022/03/22 02:46:03;;;;;;;;;;;9.20;95.60;;;7.93;56.83;102691.09;2570023;30;138403;-41
2022/03/22 02:48:30;;;;;;;;;;;9.30;95.40;;;7.91;56.51;102685.81;2568817;30;138378;-40
2022/03/22 02:51:16;;;;;;;;;;;9.30;95.10;;;7.84;56.59;102690.13;2570651;30;137447;-40
2022/03/22 02:53:43;;;;;;;;;;;9.30;95.20;;;7.85;56.13;102691.00;2570516;30;136773;-40
2022/03/22 02:56:11;;;;;;;;;;;9.30;94.90;;;7.92;55.90;102692.94;2567154;30;137806;-39
2022/03/22 02:58:39;;;;;;;;;;;9.30;94.70;;;7.83;56.19;102688.41;2570527;30;136993;-40
2022/03/22 03:01:06;;;;;;;;;;;9.30;94.90;;;7.81;56.11;102687.72;2569091;30;139105;-40
2022/03/22 03:03:34;;;;;;;;;;;9.30;94.70;;;7.73;56.12;102687.59;2567607;30;137100;-40
2022/03/22 03:06:01;;;;;;;;;;;9.20;94.80;;;7.77;55.77;102694.47;2569232;30;138140;-40
2022/03/22 03:08:29;;;;;;;;;;;9.20;94.60;;;7.78;55.78;102688.84;2570262;30;138171;-40
2022/03/22 03:10:56;;;;;;;;;;;9.20;94.60;;;7.68;56.39;102692.59;2571948;30;137401;-40
2022/03/22 03:13:24;;;;;;;;;;;9.20;94.80;;;7.61;56.57;102695.91;2568707;30;137324;-40
2022/03/22 03:15:52;;;;;;;;;;;9.10;94.80;;;7.57;55.90;102691.78;2570230;30;138529;-40
2022/03/22 03:18:20;;;;;;;;;;;9.00;94.40;;;7.52;56.90;102685.94;2568098;30;137195;-40
2022/03/22 03:20:47;;;;;;;;;;;9.00;95.00;;;7.55;56.64;102696.50;2568884;30;138348;-40
2022/03/22 03:23:15;;;;;;;;;;;9.00;94.90;;;7.56;56.55;102700.06;2570932;30;137081;-40
2022/03/22 03:25:42;;;;;;;;;;;9.00;94.90;;;7.53;56.73;102701.22;2569393;30;138861;-40
2022/03/22 03:28:09;;;;;;;;;;;9.00;94.90;;;7.47;56.19;102699.13;2568320;30;137088;-40
2022/03/22 03:30:37;;;;;;;;;;;8.90;94.50;;;7.47;55.48;102699.13;2569698;30;138219;-40
2022/03/22 03:33:04;;;;;;;;;;;8.90;94.20;;;7.37;56.69;102701.84;2568292;30;137021;-42
2022/03/22 03:35:32;;;;;;;;;;;8.80;94.80;;;7.34;56.26;102705.69;2570563;30;137170;-40
2022/03/22 03:37:59;;;;;;;;;;;8.80;94.50;;;7.26;56.83;102707.41;2570781;30;137184;-40
2022/03/22 03:41:53;;;;;;;;;;;8.80;94.80;;;7.21;56.29;102705.16;2569513;30;138224;-39
2022/03/22 03:43:14;;;;;;;;;;;8.70;94.40;;;7.15;56.62;102720.16;2570745;30;137162;-40
2022/03/22 03:48:27;;;;;;;;;;;8.60;94.70;;;7.10;56.34;102702.56;2569975;30;136876;-41
2022/03/22 03:50:54;;;;;;;;;;;8.60;94.50;;;7.02;56.52;102709.56;2568322;30;137312;-40
2022/03/22 03:53:23;;;;;;;;;;;8.50;94.50;;;6.97;56.63;102708.28;2570635;30;137137;-40
2022/03/22 03:55:50;;;;;;;;;;;8.50;94.60;;;6.91;56.79;102720.56;2570465;30;139282;-40
2022/03/22 03:58:18;;;;;;;;;;;8.40;94.60;;;6.84;57.51;102716.69;2569081;30;137336;-40
2022/03/22 04:00:45;;;;;;;;;;;8.30;95.00;;;6.80;57.34;102721.56;2571790;30;139263;-40
2022/03/22 04:03:12;;;;;;;;;;;8.30;95.00;;;6.74;57.58;102722.97;2568832;30;137751;-40
2022/03/22 04:05:40;;;;;;;;;;;8.30;94.90;;;6.75;57.21;102718.38;2569262;30;137340;-40
2022/03/22 04:08:09;;;;;;;;;;;8.30;94.90;;;6.80;56.90;102724.28;2570772;30;136613;-40
2022/03/22 04:10:37;;;;;;;;;;;8.30;94.70;;;6.80;57.06;102724.28;2571513;30;138244;-42
2022/03/22 04:13:04;;;;;;;;;;;8.30;94.80;;;6.80;56.85;102726.13;2569081;30;137050;-40
2022/03/22 04:15:31;;;;;;;;;;;8.30;94.60;;;6.79;56.65;102718.97;2567453;30;138936;-40
2022/03/22 04:17:59;;;;;;;;;;;8.30;94.50;;;6.84;56.27;102720.28;2571118;30;137070;-40
2022/03/22 04:20:26;;;;;;;;;;;8.30;94.30;;;6.74;56.57;102731.13;2570783;30;137778;-40
2022/03/22 04:22:55;;;;;;;;;;;8.20;94.40;;;6.69;56.09;102727.97;2568934;30;137027;-40
2022/03/22 04:25:22;;;;;;;;;;;8.20;94.10;;;6.63;56.25;102723.13;2568182;30;137760;-40
2022/03/22 04:33:22;;;;;;;;;;;8.10;94.30;;;6.47;56.79;102724.50;2566418;30;137108;-40
2022/03/22 04:35:50;;;;;;;;;;;8.00;94.40;;;6.43;56.86;102722.19;2571203;30;138435;-40
2022/03/22 04:38:18;;;;;;;;;;;8.00;94.40;;;6.43;56.14;102730.31;2569228;30;137110;-40
2022/03/22 04:40:47;;;;;;;;;;;8.00;94.20;;;6.39;56.50;102732.47;2571150;30;137330;-40
2022/03/22 04:43:18;;;;;;;;;;;7.90;94.20;;;6.31;57.10;102724.16;2569757;30;137082;-41
2022/03/22 04:45:46;;;;;;;;;;;7.80;94.40;;;6.25;56.37;102724.69;2571522;30;137479;-40
2022/03/22 04:48:14;;;;;;;;;;;7.80;94.20;;;6.23;56.88;102735.66;2570361;30;137800;-39
2022/03/22 04:50:41;;;;;;;;;;;7.80;94.40;;;6.23;57.09;102727.53;2566709;30;137274;-40
2022/03/22 04:58:41;;;;;;;;;;;7.70;94.20;;;6.14;56.63;102734.66;2568061;30;137047;-40
2022/03/22 05:01:08;;;;;;;;;;;7.70;94.10;;;6.11;56.63;102734.06;2570010;30;139062;-41
2022/03/22 05:03:35;;;;;;;;;;;7.70;94.20;;;6.09;57.15;102736.06;2569255;30;137731;-40
2022/03/22 05:08:49;;;;;;;;;;;7.60;94.20;;;5.98;57.12;102734.25;2569006;30;137915;-40
2022/03/22 05:11:16;;;;;;;;;;;7.50;94.50;;;5.98;56.45;102734.25;2567702;30;137495;-40
2022/03/22 05:13:43;;;;;;;;;;;7.50;94.10;;;5.96;56.56;102742.50;2569650;30;138021;-42
2022/03/22 05:16:11;;;;;;;;;;;7.50;94.10;;;5.90;56.91;102740.34;2569814;30;138313;-40
2022/03/22 05:18:38;;;;;;;;;;;7.50;94.40;;;5.85;56.95;102735.34;2569028;30;137118;-40
2022/03/22 05:21:06;;;;;;;;;;;7.40;94.10;;;5.84;56.03;102749.88;2571269;30;138272;-40
2022/03/22 05:23:34;;;;;;;;;;;7.40;93.80;;;5.81;56.43;102744.72;2569937;30;137118;-40
2022/03/22 05:26:04;;;;;;;;;;;7.30;93.90;;;5.77;56.57;102751.38;2569591;30;138097;-40
2022/03/22 05:28:32;;;;;;;;;;;7.30;94.00;;;5.75;55.95;102756.09;2570659;30;137480;-40
2022/03/22 05:30:59;;;;;;;;;;;7.30;93.70;;;5.74;56.33;102755.25;2567277;30;139393;-40
2022/03/22 05:33:27;;;;;;;;;;;7.30;94.00;;;5.72;56.37;102756.34;2570723;30;137128;-41
2022/03/22 05:35:54;;;;;;;;;;;7.30;94.00;;;5.68;56.65;102760.31;2569226;30;137450;-40
2022/03/22 05:38:25;;;;;;;;;;;7.30;94.10;;;5.73;56.29;102760.78;2570912;30;137036;-42
2022/03/22 05:40:54;;;;;;;;;;;7.20;93.90;;;5.71;56.77;102760.06;2568984;30;138961;-39
2022/03/22 05:43:21;;;;;;;;;;;7.30;94.20;;;5.68;56.97;102758.47;2568803;30;137900;-42
2022/03/22 05:45:49;;;;;;;;;;;7.20;94.30;;;5.75;57.72;102767.78;2568954;30;138613;-40
2022/03/22 05:48:20;;;;;;;;;;;7.20;94.70;;;5.75;57.46;102766.91;2569634;30;136965;-40
2022/03/22 05:50:47;;;;;;;;;;;7.20;94.60;;;5.73;57.62;102760.78;2569580;30;141078;-40
2022/03/22 05:53:15;;;;;;;;;;;7.20;94.80;;;5.77;58.52;102767.63;2570522;30;138135;-41
2022/03/22 05:55:43;;;;;;;;;;;7.30;95.30;;;5.81;57.62;102773.66;2570339;30;138576;-40
2022/03/22 05:58:11;;;;;;;;;;;7.30;94.80;;;5.89;57.20;102768.44;2569993;30;136671;-40
2022/03/22 06:00:39;;;;;;;;;;;7.30;94.60;;;5.88;57.57;102758.59;2569949;30;139117;-40
2022/03/22 06:03:06;;;;;;;;;;;7.40;94.80;;;5.99;58.09;102773.91;2571819;30;136985;-40
2022/03/22 06:05:34;;;;;;;;;;;7.40;94.90;;;6.05;56.62;102759.84;2568412;30;139995;-40
2022/03/22 06:08:03;;;;;;;;;;;7.50;94.50;;;6.17;57.99;102776.88;2568184;30;137415;-40
2022/03/22 06:10:33;;;;;;;;;;;7.60;94.90;;;6.31;56.72;102779.25;2569194;30;138237;-39
2022/03/22 06:13:01;;;;;;;;;;;7.70;94.60;;;6.40;56.30;102783.00;2570078;30;137180;-40
2022/03/22 06:15:30;;;;;;;;;;;7.80;94.40;;;6.48;56.29;102790.41;2569333;30;137215;-40
2022/03/22 06:18:04;;;;;;;;;;;7.90;94.30;;;6.55;55.66;102788.03;2569905;30;137145;-39
2022/03/22 06:20:36;;;;;;;;;;;7.90;93.80;;;6.69;54.93;102790.38;2569803;30;139163;-40
2022/03/22 06:23:05;;;;;;;;;;;8.00;93.50;;;6.81;53.88;102791.09;2569178;30;137764;-39
2022/03/22 06:25:34;;;;;;;;;;;8.20;92.90;;;6.91;54.47;102785.72;2568320;30;138001;-40
2022/03/22 06:28:04;;;;;;;;;;;8.30;93.30;;;6.99;54.59;102783.13;2569703;30;137396;-40
2022/03/22 06:30:34;;;;;;;;;;;8.30;93.30;;;7.05;53.83;102785.28;2568849;30;137084;-40
2022/03/22 06:33:09;;;;;;;;;;;8.40;93.00;;;7.17;53.71;102790.59;2568855;30;137120;-40
2022/03/22 06:35:37;;;;;;;;;;;8.50;92.70;;;7.25;54.11;102798.88;2570300;30;139206;-40
2022/03/22 06:38:04;;;;;;;;;;;8.60;93.20;;;7.33;51.75;102796.31;2569880;30;137859;-40
2022/03/22 06:40:34;;;;;;;;;;;8.70;91.70;;;7.44;52.79;102797.19;2565987;30;138422;-40
2022/03/22 06:43:04;;;;;;;;;;;8.70;92.40;;;7.55;53.94;102794.31;2569142;30;137003;-39
2022/03/22 06:45:35;;;;;;;;;;;8.80;93.10;;;7.65;52.26;102798.84;2569213;30;138074;-40
2022/03/22 06:48:04;;;;;;;;;;;8.90;92.10;;;7.74;51.39;102793.41;2569826;30;136925;-41
2022/03/22 06:50:31;;;;;;;;;;;9.00;91.50;;;7.90;52.02;102798.25;2570369;30;139006;-39
2022/03/22 06:52:59;;;;;;;;;;;9.10;91.90;;;7.97;52.61;102803.97;2570432;30;136766;-39
2022/03/22 06:55:26;;;;;;;;;;;9.20;92.20;;;8.05;51.20;102805.94;2569267;30;138215;-40
2022/03/22 06:57:56;;;;;;;;;;;9.30;91.60;;;8.19;49.68;102810.91;2569818;30;137806;-40
2022/03/22 07:00:27;;;;;;;;;;;9.40;90.50;;;8.36;49.64;102805.69;2569566;30;138385;-39
2022/03/22 07:02:55;;;;;;;;;;;9.60;90.60;;;8.43;50.32;102805.97;2569374;30;136699;-40
2022/03/22 07:05:23;;;;;;;;;;;9.70;90.90;;;8.52;48.72;102802.38;2568772;30;138821;-41
2022/03/22 07:07:51;;;;;;;;;;;9.80;89.70;;;8.63;48.38;102813.06;2568464;30;136750;-41
2022/03/22 07:10:18;;;;;;;;;;;9.90;89.60;;;8.76;47.43;102806.41;2568147;30;138480;-41
2022/03/22 07:12:58;;;;;;;;;;;10.00;88.00;;;8.91;48.00;102812.19;2565114;30;137293;-41
2022/03/22 07:15:33;;;;;;;;;;;10.10;88.50;;;9.03;47.84;102816.44;2568265;30;138533;-41
2022/03/22 07:18:05;;;;;;;;;;;10.20;88.40;;;9.15;47.89;102814.34;2568044;30;137010;-41
2022/03/22 07:20:33;;;;;;;;;;;10.30;88.50;;;9.30;47.19;102819.25;2566723;30;138726;-41
2022/03/22 07:23:02;;;;;;;;;;;10.40;87.60;;;9.43;46.63;102816.13;2568266;30;137147;-41
2022/03/22 07:25:30;;;;;;;;;;;10.60;86.40;;;9.52;46.31;102820.63;2566189;30;137492;-41
2022/03/22 07:27:57;;;;;;;;;;;10.70;85.70;;;9.61;46.50;102819.69;2568815;30;137350;-42
2022/03/22 07:30:25;;;;;;;;;;;10.80;85.90;;;9.67;46.47;102817.34;2567933;30;138490;-41
2022/03/22 07:32:55;;;;;;;;;;;10.90;86.70;;;9.85;46.41;102815.47;2566524;30;137998;-41
2022/03/22 07:35:23;;;;;;;;;;;11.00;86.00;;;9.93;46.17;102815.50;2567482;30;137702;-41
2022/03/22 07:37:51;;;;;;;;;;;11.10;86.20;;;10.01;46.16;102814.72;2566124;30;136989;-41
2022/03/22 07:40:18;;;;;;;;;;;11.10;84.90;;;10.18;44.21;102814.81;2568121;30;139018;-41
2022/03/22 07:42:48;;;;;;;;;;;11.30;82.60;;;10.28;45.54;102811.97;2566785;30;136810;-41
2022/03/22 07:45:19;;;;;;;;;;;11.40;84.40;;;10.32;43.72;102813.34;2567577;30;139323;-41
2022/03/22 07:47:47;;;;;;;;;;;11.50;82.00;;;10.49;44.35;102812.47;2568735;30;136870;-41
2022/03/22 07:53:07;;;;;;;;;;;11.70;80.60;;;10.64;43.56;102806.41;2566568;30;136740;-41
2022/03/22 07:55:39;;;;;;;;;;;11.80;81.10;;;10.76;45.20;102815.16;2567532;30;138166;-41
2022/03/22 07:58:08;;;;;;;;;;;11.80;82.60;;;10.84;43.44;102815.16;2567286;30;137395;-41
2022/03/22 08:00:38;;;;;;;;;;;11.90;80.50;;;10.94;43.75;102817.75;2569349;30;138406;-41
2022/03/22 08:03:12;;;;;;;;;;;12.00;80.30;;;11.03;43.24;102830.41;2568188;30;137291;-41
2022/03/22 08:05:47;;;;;;;;;;;12.10;79.80;;;11.13;44.02;102827.53;2569190;30;139039;-41
2022/03/22 08:08:15;;;;;;;;;;;12.20;80.80;;;11.27;44.06;102834.22;2567849;30;136988;-41
2022/03/22 08:11:02;;;;;;;;;;;12.30;81.90;;;11.41;44.26;102840.06;2569407;30;138488;-41
2022/03/22 08:13:29;;;;;;;;;;;12.40;81.00;;;11.51;44.14;102822.44;2569120;30;137066;-41
2022/03/22 08:15:56;;;;;;;;;;;12.60;80.90;;;11.68;42.42;102832.56;2568854;30;139315;-41
2022/03/22 08:18:24;;;;;;;;;;;12.70;78.80;;;11.84;42.65;102828.97;2567371;30;137025;-42
2022/03/22 08:20:52;;;;;;;;;;;12.80;79.40;;;12.00;41.92;102831.66;2569415;30;138498;-41
2022/03/22 08:23:20;;;;;;;;;;;13.00;78.30;;;12.08;39.11;102828.09;2568877;30;137714;-41
2022/03/22 08:25:49;;;;;;;;;;;13.10;74.10;;;12.25;41.05;102828.91;2569441;30;138085;-41
2022/03/22 08:28:18;;;;;;;;;;;13.20;76.30;;;12.35;41.27;102834.19;2568238;30;137535;-41
2022/03/22 08:30:46;;;;;;;;;;;13.30;76.40;;;12.45;39.35;102834.84;2567987;30;137893;-41
2022/03/22 08:33:14;;;;;;;;;;;13.50;73.50;;;12.54;40.78;102832.09;2569192;30;136897;-41
2022/03/22 08:35:48;;;;;;;;;;;13.50;75.00;;;12.66;40.65;102830.66;2569546;30;138619;-41
2022/03/22 08:38:20;;;;;;;;;;;13.70;76.00;;;12.75;39.36;102829.63;2568314;30;137001;-41
2022/03/22 08:40:48;;;;;;;;;;;13.70;73.30;;;12.83;38.44;102836.06;2567123;30;138460;-42
2022/03/22 08:43:16;;;;;;;;;;;13.80;72.30;;;12.92;40.08;102832.25;2567459;30;138010;-41
2022/03/22 08:45:44;;;;;;;;;;;13.90;74.20;;;13.02;39.83;102837.50;2568730;30;139275;-41
2022/03/22 08:48:12;;;;;;;;;;;14.00;73.20;;;13.09;38.26;102835.75;2566475;30;136997;-41
2022/03/22 08:50:44;;;;;;;;;;;14.10;71.10;;;13.07;38.21;102827.72;2567658;30;137447;-41
2022/03/22 08:53:13;;;;;;;;;;;14.10;70.00;;;13.19;37.70;102828.16;2568413;30;137275;-41
2022/03/22 08:55:44;;;;;;;;;;;14.10;70.10;;;13.29;37.99;102822.47;2569556;30;139062;-41
2022/03/22 08:58:12;;;;;;;;;;;14.20;70.40;;;13.35;37.04;102823.59;2568202;30;137241;-41
2022/03/22 09:00:40;;;;;;;;;;;14.30;68.70;;;13.42;37.86;102824.59;2566214;30;138526;-41
2022/03/22 09:03:10;;;;;;;;;;;14.40;70.00;;;13.52;37.80;102825.22;2569431;30;137056;-41
2022/03/22 09:08:25;;;;;;;;;;;14.60;69.20;;;13.77;37.63;102825.00;2567654;30;136769;-41
2022/03/22 09:10:53;;;;;;;;;;;14.70;69.60;;;13.84;36.91;102825.13;2567822;30;137803;-42
2022/03/22 09:13:21;;;;;;;;;;;14.80;68.10;;;13.95;38.61;102823.84;2568892;30;136879;-41
2022/03/22 09:15:51;;;;;;;;;;;14.90;71.10;;;14.00;37.44;102821.38;2567730;30;137214;-42
2022/03/22 09:18:23;;;;;;;;;;;14.90;68.40;;;13.95;36.16;102821.09;2568943;30;137223;-41
2022/03/22 09:20:50;;;;;;;;;;;14.90;67.20;;;14.04;37.54;102808.13;2568642;30;137915;-41
2022/03/22 09:23:18;;;;;;;;;;;15.00;68.40;;;14.17;36.02;102811.06;2568687;30;136850;-41
2022/03/22 09:25:47;;;;;;;;;;;15.10;67.10;;;14.24;36.73;102809.28;2568023;30;137363;-41
2022/03/22 09:28:14;;;;;;;;;;;15.20;67.90;;;14.32;35.53;102808.34;2569304;30;137300;-41
2022/03/22 09:30:42;;;;;;;;;;;15.30;65.70;;;14.42;35.97;102813.53;2568471;30;136983;-41
2022/03/22 09:33:11;;;;;;;;;;;15.30;66.00;;;14.49;35.18;102800.75;2567479;30;137833;-41
2022/03/22 09:35:39;;;;;;;;;;;15.50;65.80;;;14.58;35.62;102811.63;2567667;30;137600;-41
2022/03/22 09:38:06;;;;;;;;;;;15.50;65.60;;;14.61;34.92;102808.53;2567750;30;137203;-41
2022/03/22 09:40:34;;;;;;;;;;;15.60;64.40;;;14.73;35.18;102807.00;2567543;30;138600;-41
2022/03/22 09:43:01;;;;;;;;;;;15.70;65.10;;;14.82;33.72;102797.59;2567253;30;137166;-41
2022/03/22 09:45:31;;;;;;;;;;;15.80;63.20;;;14.88;34.93;102795.16;2569074;30;136717;-43
2022/03/22 09:47:59;;;;;;;;;;;15.80;64.60;;;15.00;34.17;102799.06;2568055;30;137940;-41
2022/03/22 09:53:16;;;;;;;;;;;16.00;64.90;;;15.09;32.90;102797.91;2567256;30;138020;-41
2022/03/22 09:55:43;;;;;;;;;;;16.00;61.90;;;15.20;33.67;102784.69;2568034;30;138973;-41
2022/03/22 09:58:29;;;;;;;;;;;16.10;62.70;;;15.36;33.30;102783.59;2568408;30;136823;-41
2022/03/22 10:00:57;;;;;;;;;;;16.20;62.40;;;15.45;33.11;102787.88;2568044;30;137185;-41
2022/03/22 10:03:24;;;;;;;;;;;16.30;61.50;;;15.61;33.75;102785.91;2567995;30;137102;-41
2022/03/22 10:06:01;;;;;;;;;;;16.40;62.50;;;15.71;31.11;102786.41;2566739;30;139191;-41
2022/03/22 10:08:29;;;;;;;;;;;16.60;59.70;;;15.77;31.39;102787.53;2568655;30;137345;-42
2022/03/22 10:11:02;;;;;;;;;;;16.60;59.30;;;15.80;32.54;102782.50;2567822;30;137139;-41
2022/03/22 10:13:33;;;;;;;;;;;16.70;60.40;;;15.87;31.98;102778.94;2568600;30;136894;-41
2022/03/22 10:16:05;;;;;;;;;;;16.70;59.90;;;15.97;31.86;102782.19;2568728;30;136642;-41
2022/03/22 10:18:35;;;;;;;;;;;16.80;59.20;;;16.09;34.05;102780.59;2569344;30;136817;-41
2022/03/22 10:21:05;;;;;;;;;;;16.90;61.70;;;16.21;30.93;102778.13;2567748;30;138132;-41
2022/03/22 10:23:34;;;;;;;;;;;17.10;58.60;;;16.32;32.64;102776.72;2567487;30;136632;-41
2022/03/22 10:26:06;;;;;;;;;;;17.20;60.60;;;16.41;29.70;102771.03;2568921;30;138994;-41
2022/03/22 10:28:35;;;;;;;;;;;17.30;57.20;;;16.49;31.73;102773.59;2569088;30;137018;-41
2022/03/22 10:31:03;;;;;;;;;;;17.30;59.10;;;16.50;31.28;102769.78;2568922;30;138269;-41
2022/03/22 10:33:30;;;;;;;;;;;17.40;58.00;;;16.59;31.43;102773.22;2568275;30;136949;-41
2022/03/22 10:35:58;;;;;;;;;;;17.40;57.90;;;16.66;32.20;102769.44;2566571;30;140859;-41
2022/03/22 10:38:26;;;;;;;;;;;17.50;59.00;;;16.70;30.83;102772.59;2568765;30;138062;-41
2022/03/22 10:40:53;;;;;;;;;;;17.50;57.80;;;16.78;31.66;102771.59;2567008;30;138300;-42
2022/03/22 10:43:23;;;;;;;;;;;17.60;58.00;;;16.90;32.03;102771.84;2568366;30;137030;-41
2022/03/22 10:46:00;;;;;;;;;;;17.70;58.80;;;16.90;31.62;102769.06;2569373;30;138123;-41
2022/03/22 10:48:32;;;;;;;;;;;17.80;58.80;;;16.97;30.80;102765.28;2566974;30;137076;-41
2022/03/22 10:51:01;;;;;;;;;;;17.90;57.50;;;17.05;30.65;102775.31;2567455;30;137814;-41
2022/03/22 10:53:34;;;;;;;;;;;17.90;57.20;;;17.13;31.81;102768.75;2568984;30;136882;-42
2022/03/22 10:56:05;;;;;;;;;;;18.00;58.70;;;17.23;29.85;102765.56;2567994;30;138151;-41
2022/03/22 10:58:35;;;;;;;;;;;18.00;56.80;;;17.27;32.57;102757.72;2569172;30;137205;-41
2022/03/22 11:01:03;;;;;;;;;;;18.10;59.00;;;17.23;29.10;102755.38;2568926;30;138969;-41
2022/03/22 11:03:32;;;;;;;;;;;18.10;54.90;;;17.34;30.95;102758.56;2569498;30;137217;-41
2022/03/22 11:06:04;;;;;;;;;;;18.20;56.90;;;17.47;30.29;102763.25;2567944;30;139099;-41
2022/03/22 11:08:32;;;;;;;;;;;18.30;56.60;;;17.46;27.80;102751.38;2567162;30;137001;-42
2022/03/22 11:11:00;;;;;;;;;;;18.30;53.10;;;17.45;29.89;102752.44;2568166;30;137324;-41
2022/03/22 11:13:28;;;;;;;;;;;18.30;55.70;;;17.57;30.98;102749.03;2568357;30;136962;-42
2022/03/22 11:15:55;;;;;;;;;;;18.40;57.20;;;17.71;31.76;102745.22;2568726;30;138473;-41
2022/03/22 11:18:28;;;;;;;;;;;18.50;58.10;;;17.89;31.17;102744.53;2567785;30;137169;-41
2022/03/22 11:21:01;;;;;;;;;;;18.60;56.50;;;17.97;30.81;102736.00;2568397;30;137321;-41
2022/03/22 11:23:31;;;;;;;;;;;18.70;56.70;;;18.01;26.52;102735.59;2567750;30;137009;-41
2022/03/22 11:26:28;;;;;;;;;;;18.80;52.00;;;18.11;28.61;102738.78;2567444;30;138315;-41
2022/03/22 11:28:56;;;;;;;;;;;18.90;53.40;;;18.16;28.73;102725.16;2568325;30;137218;-41
2022/03/22 11:31:27;;;;;;;;;;;19.00;54.20;;;18.21;29.91;102733.66;2568316;30;139311;-41
2022/03/22 11:34:11;;;;;;;;;;;19.10;55.30;;;18.23;28.59;102728.75;2568876;30;137067;-41
2022/03/22 11:36:40;;;;;;;;;;;19.10;53.50;;;18.32;29.10;102723.00;2568050;30;137907;-41
2022/03/22 11:39:08;;;;;;;;;;;19.10;54.60;;;18.42;32.49;102717.84;2568907;30;136924;-41
2022/03/22 11:44:39;;;;;;;;;;;19.30;55.30;;;18.43;28.08;102722.31;2569395;30;136969;-39
2022/03/22 11:47:12;;;;;;;;;;;19.40;53.10;;;18.44;29.45;102714.88;2569328;30;138222;-41
2022/03/22 11:50:01;;;;;;;;;;;19.30;54.70;;;18.45;26.12;102709.13;2567387;30;137829;-41